WetterOnline ( https://www.wetteronline.de )

Wetter aktuell Wyhl

Aktuelles Wetter: Freiburg/Flugplatz (236m)

6-stündlich | Neueste Meldungen
Ortszeit Temperatur Wetter
Sa, 28.01. 19:00 2.6° C bedeckt
Sa, 28.01. 13:00 3.7° C bewölkt
Sa, 28.01. 7:00 1.1° C bedeckt
Sa, 28.01. 1:00 0.8° C bedeckt
Fr, 27.01. 19:00 0.7° C bedeckt
Fr, 27.01. 13:00 0.8° C bedeckt
Fr, 27.01. 7:00 -1.1° C bedeckt
Fr, 27.01. 1:00 -1.1° C bedeckt
Ortszeit Temperatur Wetter
So, 29.01. 0:30 0.9° C bedeckt
So, 29.01. 0:20 0.9° C bedeckt
So, 29.01. 0:10 0.8° C bedeckt
So, 29.01. 0:00 1.1° C bedeckt
Sa, 28.01. 23:50 1.1° C bedeckt
Sa, 28.01. 23:40 1.3° C bedeckt
Sa, 28.01. 23:30 1.4° C bedeckt
Sa, 28.01. 23:00 1.4° C bedeckt
Sa, 28.01. 22:30 1.6° C bedeckt
Sa, 28.01. 22:00 1.8° C bedeckt
Sa, 28.01. 21:30 1.8° C bedeckt
Ortszeit Relative Feuchte Sichtweite
Sa, 28.01. 19:00 73% 35 km
Sa, 28.01. 13:00 59% 60 km
Sa, 28.01. 7:00 76% 40 km
Sa, 28.01. 1:00 74% 30 km
Fr, 27.01. 19:00 74% 28 km
Fr, 27.01. 13:00 72% 30 km
Fr, 27.01. 7:00 87% 17 km
Fr, 27.01. 1:00 79% 30 km
Ortszeit Relative Feuchte Sichtweite
So, 29.01. 0:30 84% 30 km
So, 29.01. 0:20 84% -
So, 29.01. 0:10 85% -
So, 29.01. 0:00 83% 35 km
Sa, 28.01. 23:50 83% -
Sa, 28.01. 23:40 82% -
Sa, 28.01. 23:30 81% 35 km
Sa, 28.01. 23:00 81% 35 km
Sa, 28.01. 22:30 82% 35 km
Sa, 28.01. 22:00 80% 35 km
Sa, 28.01. 21:30 79% 35 km
Ortszeit Niederschlagsmenge Niederschlagsart
Sa, 28.01. 19:00 0.1 l/m2 in 12 Std. -
Sa, 28.01. 13:00 0.1 l/m2 in 6 Std. Schnee, Sprühregen
Sa, 28.01. 7:00 0.0 l/m2 in 12 Std. -
Sa, 28.01. 1:00 0.0 l/m2 in 6 Std. -
Fr, 27.01. 19:00 0.1 l/m2 in 12 Std. Schnee
Fr, 27.01. 13:00 0.0 l/m2 in 6 Std. -
Fr, 27.01. 7:00 0.0 l/m2 in 12 Std. -
Fr, 27.01. 1:00 0.0 l/m2 in 6 Std. -
Ortszeit Niederschlagsmenge Niederschlagsart
So, 29.01. 0:30 0.0 l/m2 in 30 Min -
So, 29.01. 0:20 keine Meldung -
So, 29.01. 0:10 keine Meldung -
So, 29.01. 0:00 0.0 l/m2 in 1 Std. -
Sa, 28.01. 23:50 keine Meldung -
Sa, 28.01. 23:40 keine Meldung -
Sa, 28.01. 23:30 0.0 l/m2 in 30 Min -
Sa, 28.01. 23:00 0.0 l/m2 in 1 Std. -
Sa, 28.01. 22:30 0.0 l/m2 in 30 Min -
Sa, 28.01. 22:00 0.0 l/m2 in 1 Std. -
Sa, 28.01. 21:30 0.0 l/m2 in 30 Min -
Ortszeit Stärke Spitze Richtung
km/h Bft. km/h Grad Sektor
Sa, 28.01. 19:00 7 2 31 360° N
Sa, 28.01. 13:00 11 2 22 30° NO
Sa, 28.01. 7:00 9 2 19 10° N
Sa, 28.01. 1:00 11 2 22 10° N
Fr, 27.01. 19:00 9 2 26 10° N
Fr, 27.01. 13:00 13 3 20 10° N
Fr, 27.01. 7:00 6 1 13 10° N
Fr, 27.01. 1:00 9 2 22 350° N
Ortszeit Stärke Spitze Richtung
km/h Bft. km/h Grad Sektor
So, 29.01. 0:30 9 2 13 340° N
So, 29.01. 0:20 9 2 - 340° N
So, 29.01. 0:10 11 2 - 330° NW
So, 29.01. 0:00 4 1 18 340° N
Sa, 28.01. 23:50 4 1 - 340° N
Sa, 28.01. 23:40 4 1 - 350° N
Sa, 28.01. 23:30 6 1 17 20° N
Sa, 28.01. 23:00 11 2 19 350° N
Sa, 28.01. 22:30 7 2 14 360° N
Sa, 28.01. 22:00 7 2 14 350° N
Sa, 28.01. 21:30 9 2 13 330° NW
Ortszeit Untergrenze Bedeckung Gattung
total tief tief mittel hoch
Sa, 28.01. 19:00 990 m 8/8 8/8 - - -
Sa, 28.01. 13:00 990 m 7/8 7/8 - - -
Sa, 28.01. 7:00 780 m 8/8 8/8 - - -
Sa, 28.01. 1:00 1500 m 8/8 8/8 - - -
Fr, 27.01. 19:00 930 m 8/8 8/8 - - -
Fr, 27.01. 13:00 660 m 8/8 8/8 - - -
Fr, 27.01. 7:00 360 m 8/8 8/8 - - -
Fr, 27.01. 1:00 420 m 8/8 8/8 - - -
Ortszeit Bedeckungsgrad in Achtel und Wolkenuntergrenze
So, 29.01. 0:30 8(930m)
So, 29.01. 0:20 8(930m)
So, 29.01. 0:10 8
So, 29.01. 0:00 8(930m)
Sa, 28.01. 23:50 8(930m)
Sa, 28.01. 23:40 8
Sa, 28.01. 23:30 8(930m)
Sa, 28.01. 23:00 8(930m)
Sa, 28.01. 22:30 8(960m)
Sa, 28.01. 22:00 8(930m)
Sa, 28.01. 21:30 8(870m)
Ortszeit Luftdruck NN (hPa) Tendenz (hPa in 3 Std.)
Sa, 28.01. 19:00 1028 + 1,5
Sa, 28.01. 13:00 1026 - 0,2
Sa, 28.01. 7:00 1025 + 0,8
Sa, 28.01. 1:00 1024 - 0,2
Fr, 27.01. 19:00 1023 + 1,0
Fr, 27.01. 13:00 1022 - 0,1
Fr, 27.01. 7:00 1021 + 0,4
Fr, 27.01. 1:00 1022 - 0,6
Ortszeit Luftdruck NN (hPa) Tendenz (hPa in 3 Std.)
So, 29.01. 0:30 1029 + 0,3
So, 29.01. 0:20 1029 keine Meldung
So, 29.01. 0:10 1029 keine Meldung
So, 29.01. 0:00 1029 + 0,5
Sa, 28.01. 23:50 1029 keine Meldung
Sa, 28.01. 23:40 1029 keine Meldung
Sa, 28.01. 23:30 1029 + 0,5
Sa, 28.01. 23:00 1029 + 0,5
Sa, 28.01. 22:30 1029 + 0,5
Sa, 28.01. 22:00 1029 + 0,7
Sa, 28.01. 21:30 1029 + 0,8
Ortszeit Schneehöhe (cm)
Sa, 28.01. 19:00 0
Sa, 28.01. 13:00 0
Sa, 28.01. 7:00 0
Sa, 28.01. 1:00 0
Fr, 27.01. 19:00 0
Fr, 27.01. 13:00 0
Fr, 27.01. 7:00 0
Fr, 27.01. 1:00 0
Ortszeit Schneehöhe (cm)
So, 29.01. 0:30 0
So, 29.01. 0:20 0
So, 29.01. 0:10 0
So, 29.01. 0:00 0
Sa, 28.01. 23:50 0
Sa, 28.01. 23:40 0
Sa, 28.01. 23:30 0
Sa, 28.01. 23:00 0
Sa, 28.01. 22:30 0
Sa, 28.01. 22:00 0
Sa, 28.01. 21:30 0
Link zu dieser Seite / Seite empfehlen

Das Wetter in ...